createdAt,value
2023-01-26T00:04:40.963Z,-3.12
2023-01-26T00:07:09.541Z,-3.12
2023-01-26T00:09:38.196Z,-3.09
2023-01-26T00:12:06.542Z,-3.04
2023-01-26T00:14:50.136Z,-2.98
2023-01-26T00:17:26.330Z,-2.93
2023-01-26T00:19:58.986Z,-2.85
2023-01-26T00:22:30.177Z,-2.80
2023-01-26T00:25:01.344Z,-2.74
2023-01-26T00:27:32.352Z,-2.67
2023-01-26T00:30:02.072Z,-2.63
2023-01-26T00:32:36.195Z,-2.63
2023-01-26T00:35:05.571Z,-2.62
2023-01-26T00:37:33.837Z,-2.61
2023-01-26T00:40:01.827Z,-2.57
2023-01-26T00:42:30.163Z,-2.54
2023-01-26T00:44:58.408Z,-2.46
2023-01-26T00:47:26.685Z,-2.41
2023-01-26T00:49:54.822Z,-2.38
2023-01-26T00:52:23.007Z,-2.41
2023-01-26T00:54:51.584Z,-2.39
2023-01-26T00:57:19.914Z,-2.36
2023-01-26T00:59:48.085Z,-2.35
2023-01-26T01:02:16.320Z,-2.35
2023-01-26T01:04:44.611Z,-2.40
2023-01-26T01:07:13.117Z,-2.44
2023-01-26T01:09:41.089Z,-2.50
2023-01-26T01:12:09.240Z,-2.51
2023-01-26T01:14:38.640Z,-2.49
2023-01-26T01:17:06.695Z,-2.47
2023-01-26T01:19:38.253Z,-2.42
2023-01-26T01:22:07.131Z,-2.38
2023-01-26T01:24:35.485Z,-2.37
2023-01-26T01:27:03.644Z,-2.36
2023-01-26T01:29:31.752Z,-2.36
2023-01-26T01:32:00.275Z,-2.31
2023-01-26T01:34:29.203Z,-2.27
2023-01-26T01:36:58.784Z,-2.23
2023-01-26T01:39:27.456Z,-2.20
2023-01-26T01:41:55.519Z,-2.13
2023-01-26T01:44:25.658Z,-2.13
2023-01-26T01:46:57.433Z,-2.14
2023-01-26T01:49:28.529Z,-2.18
2023-01-26T01:52:10.776Z,-2.19
2023-01-26T01:54:44.462Z,-2.19
2023-01-26T01:57:17.685Z,-2.20
2023-01-26T01:59:52.169Z,-2.25
2023-01-26T02:02:20.711Z,-2.26
2023-01-26T02:04:49.340Z,-2.23
2023-01-26T02:07:17.455Z,-2.23
2023-01-26T02:10:04.888Z,-2.19
2023-01-26T02:12:33.113Z,-2.21
2023-01-26T02:15:01.092Z,-2.26
2023-01-26T02:17:30.543Z,-2.27
2023-01-26T02:20:07.350Z,-2.26
2023-01-26T02:23:02.255Z,-2.27
2023-01-26T02:25:30.356Z,-2.21
2023-01-26T02:27:58.599Z,-2.18
2023-01-26T02:30:27.850Z,-2.17
2023-01-26T02:32:55.915Z,-2.18
2023-01-26T02:35:26.817Z,-2.19
2023-01-26T02:37:55.781Z,-2.20
2023-01-26T02:40:40.322Z,-2.22
2023-01-26T02:43:08.609Z,-2.21
2023-01-26T02:45:38.991Z,-2.17
2023-01-26T02:48:09.451Z,-2.20
2023-01-26T02:50:37.986Z,-2.19
2023-01-26T02:53:06.770Z,-2.16
2023-01-26T02:55:34.870Z,-2.17
2023-01-26T02:58:04.831Z,-2.17
2023-01-26T03:00:37.446Z,-2.16
2023-01-26T03:03:12.186Z,-2.14
2023-01-26T03:05:42.504Z,-2.14
2023-01-26T03:08:10.723Z,-2.15
2023-01-26T03:19:04.581Z,-2.05
2023-01-26T03:21:52.426Z,-2.04
2023-01-26T03:24:49.856Z,-2.04
2023-01-26T03:27:26.711Z,-2.08
2023-01-26T03:29:58.491Z,-2.10
2023-01-26T03:32:30.795Z,-2.07
2023-01-26T03:35:01.576Z,-2.04
2023-01-26T03:37:36.985Z,-2.01
2023-01-26T03:40:30.657Z,-1.96
2023-01-26T03:43:17.733Z,-1.94
2023-01-26T03:46:04.833Z,-1.92
2023-01-26T03:48:52.792Z,-1.92
2023-01-26T03:51:39.670Z,-1.95
2023-01-26T03:54:26.868Z,-1.93
2023-01-26T03:56:55.024Z,-1.89
2023-01-26T03:59:38.237Z,-1.86
2023-01-26T04:02:31.724Z,-1.85
2023-01-26T04:05:19.543Z,-1.83
2023-01-26T04:08:09.581Z,-1.81
2023-01-26T04:10:37.988Z,-1.76
2023-01-26T04:13:28.217Z,-1.76
2023-01-26T04:16:20.930Z,-1.87
2023-01-26T11:51:10.212Z,-0.35
2023-01-26T11:53:52.859Z,-0.31
2023-01-26T11:56:49.563Z,-0.26
2023-01-26T11:59:36.980Z,-0.22
2023-01-26T12:02:21.900Z,-0.18
2023-01-26T12:04:52.125Z,-0.12
2023-01-26T12:07:58.946Z,-0.07
2023-01-26T12:10:55.033Z,0.01
2023-01-26T12:20:49.449Z,-0.03
2023-01-26T12:23:30.030Z,-0.10
2023-01-26T12:26:04.984Z,-0.11
2023-01-26T12:28:54.974Z,-0.15
2023-01-26T12:31:27.148Z,-0.20
2023-01-26T12:33:56.722Z,-0.21
2023-01-26T12:36:55.817Z,-0.20
2023-01-26T12:40:07.975Z,-0.15
2023-01-26T12:42:42.530Z,-0.14
2023-01-26T12:45:18.683Z,-0.11
2023-01-26T12:47:56.857Z,-0.10
2023-01-26T12:50:31.120Z,-0.10
2023-01-26T12:53:06.800Z,-0.12
2023-01-26T12:55:44.802Z,-0.15
2023-01-26T12:58:18.937Z,-0.16
2023-01-26T13:01:05.074Z,-0.16
2023-01-26T13:03:59.643Z,-0.16
2023-01-26T13:06:28.522Z,-0.17
2023-01-26T13:09:20.653Z,-0.22
2023-01-26T13:11:54.385Z,-0.24
2023-01-26T13:14:25.413Z,-0.23
2023-01-26T13:16:55.604Z,-0.22
2023-01-26T13:19:48.145Z,-0.20
2023-01-26T13:22:19.817Z,-0.15
2023-01-26T13:25:08.476Z,-0.14
2023-01-26T13:27:54.578Z,-0.15
2023-01-26T13:30:23.947Z,-0.15
2023-01-26T13:32:54.062Z,-0.13
2023-01-26T13:35:25.955Z,-0.10
2023-01-26T13:37:58.301Z,-0.10
2023-01-26T13:40:43.765Z,-0.14
2023-01-26T13:43:27.551Z,-0.17
2023-01-26T13:46:09.173Z,-0.19
2023-01-26T13:48:46.044Z,-0.21
2023-01-26T13:51:32.869Z,-0.17
2023-01-26T13:54:13.844Z,-0.15
2023-01-26T22:06:49.895Z,-1.30
2023-01-26T22:09:21.442Z,-1.31
2023-01-26T22:11:51.168Z,-1.28
2023-01-26T22:22:33.040Z,-0.95
2023-01-26T22:25:01.599Z,-0.88
2023-01-26T22:27:30.111Z,-0.83
2023-01-26T22:29:58.958Z,-0.80
2023-01-26T22:32:27.420Z,-0.81
2023-01-26T22:34:55.574Z,-0.81
2023-01-26T22:37:24.727Z,-0.75
2023-01-26T22:39:52.913Z,-0.69
2023-01-26T22:42:21.870Z,-0.64
2023-01-26T22:44:50.492Z,-0.62
2023-01-26T22:47:19.007Z,-0.60
2023-01-26T22:49:47.347Z,-0.59
2023-01-26T22:52:16.259Z,-0.58
2023-01-26T22:54:45.194Z,-0.60
2023-01-26T22:57:15.876Z,-0.57
2023-01-26T22:59:44.043Z,-0.49
2023-01-26T23:02:15.196Z,-0.49
2023-01-26T23:04:43.591Z,-0.48
2023-01-26T23:07:11.890Z,-0.49
2023-01-26T23:09:39.888Z,-0.56
2023-01-26T23:12:08.358Z,-0.57
2023-01-26T23:14:36.380Z,-0.56
2023-01-26T23:17:05.649Z,-0.49
2023-01-26T23:19:34.389Z,-0.46
2023-01-26T23:22:02.576Z,-0.43
2023-01-26T23:24:30.800Z,-0.47
2023-01-26T23:26:58.822Z,-0.55
2023-01-26T23:29:27.016Z,-0.58
2023-01-26T23:31:55.053Z,-0.61
2023-01-26T23:34:23.137Z,-0.66
2023-01-26T23:36:51.271Z,-0.68
2023-01-26T23:39:21.775Z,-0.72
2023-01-26T23:41:49.864Z,-0.73
2023-01-26T23:44:20.152Z,-0.70
2023-01-26T23:46:48.572Z,-0.70
2023-01-26T23:49:16.715Z,-0.72
2023-01-26T23:51:44.718Z,-0.71
2023-01-26T23:54:12.937Z,-0.72
2023-01-26T23:56:40.932Z,-0.72
2023-01-26T23:59:08.903Z,-0.72
